sensor_id;sensor_type;location;lat;lon;timestamp;pressure;altitude;pressure_sealevel;temperature;humidity
84049;BME280;74136;51.684;7.862;2024-03-23T00:54:03;100264.28;;;5.29;100.00
84049;BME280;74136;51.684;7.862;2024-03-23T00:56:29;100261.97;;;5.26;100.00
84049;BME280;74136;51.684;7.862;2024-03-23T00:58:56;100258.38;;;5.25;100.00
84049;BME280;74136;51.684;7.862;2024-03-23T01:01:22;100255.44;;;5.27;100.00
84049;BME280;74136;51.684;7.862;2024-03-23T01:03:48;100251.88;;;5.26;100.00
84049;BME280;74136;51.684;7.862;2024-03-23T01:06:14;100241.81;;;5.27;100.00
84049;BME280;74136;51.684;7.862;2024-03-23T01:08:41;100237.19;;;5.27;100.00
84049;BME280;74136;51.684;7.862;2024-03-23T01:11:07;100240.97;;;5.26;100.00
84049;BME280;74136;51.684;7.862;2024-03-23T01:13:34;100233.84;;;5.25;100.00
84049;BME280;74136;51.684;7.862;2024-03-23T01:16:00;100233.00;;;5.25;100.00
84049;BME280;74136;51.684;7.862;2024-03-23T01:18:27;100221.25;;;5.24;100.00
84049;BME280;74136;51.684;7.862;2024-03-23T01:20:54;100228.59;;;5.24;100.00
84049;BME280;74136;51.684;7.862;2024-03-23T01:23:20;100215.59;;;5.19;100.00
84049;BME280;74136;51.684;7.862;2024-03-23T01:25:53;100221.06;;;5.19;100.00
84049;BME280;74136;51.684;7.862;2024-03-23T01:28:20;100214.97;;;5.17;100.00
84049;BME280;74136;51.684;7.862;2024-03-23T01:30:47;100209.72;;;5.16;100.00
84049;BME280;74136;51.684;7.862;2024-03-23T01:33:13;100212.44;;;5.16;100.00
84049;BME280;74136;51.684;7.862;2024-03-23T01:35:40;100210.75;;;5.15;100.00
84049;BME280;74136;51.684;7.862;2024-03-23T01:38:06;100202.38;;;5.16;100.00
84049;BME280;74136;51.684;7.862;2024-03-23T01:40:33;100204.25;;;5.16;100.00
84049;BME280;74136;51.684;7.862;2024-03-23T01:43:06;100198.81;;;5.16;100.00
84049;BME280;74136;51.684;7.862;2024-03-23T01:45:34;100188.94;;;5.15;100.00
84049;BME280;74136;51.684;7.862;2024-03-23T01:48:01;100182.22;;;5.10;100.00
84049;BME280;74136;51.684;7.862;2024-03-23T01:50:30;100187.03;;;5.08;100.00
84049;BME280;74136;51.684;7.862;2024-03-23T01:53:02;100179.94;;;5.07;100.00
84049;BME280;74136;51.684;7.862;2024-03-23T01:55:28;100176.56;;;5.05;100.00
84049;BME280;74136;51.684;7.862;2024-03-23T01:57:56;100176.78;;;5.04;100.00
84049;BME280;74136;51.684;7.862;2024-03-23T02:00:23;100178.47;;;5.05;100.00
84049;BME280;74136;51.684;7.862;2024-03-23T02:02:49;100179.09;;;5.07;100.00
84049;BME280;74136;51.684;7.862;2024-03-23T02:05:16;100167.56;;;5.05;100.00
84049;BME280;74136;51.684;7.862;2024-03-23T02:07:43;100166.94;;;5.03;100.00
84049;BME280;74136;51.684;7.862;2024-03-23T02:10:10;100187.28;;;5.07;100.00
84049;BME280;74136;51.684;7.862;2024-03-23T02:12:39;100171.75;;;5.01;100.00
84049;BME280;74136;51.684;7.862;2024-03-23T02:15:05;100174.03;;;4.97;100.00
84049;BME280;74136;51.684;7.862;2024-03-23T02:17:33;100169.66;;;4.96;100.00
84049;BME280;74136;51.684;7.862;2024-03-23T02:20:00;100161.69;;;4.95;100.00
84049;BME280;74136;51.684;7.862;2024-03-23T02:22:37;100167.16;;;4.95;100.00
84049;BME280;74136;51.684;7.862;2024-03-23T02:25:04;100163.78;;;4.93;100.00
84049;BME280;74136;51.684;7.862;2024-03-23T02:27:31;100162.09;;;4.92;100.00
84049;BME280;74136;51.684;7.862;2024-03-23T02:29:57;100155.81;;;4.91;100.00
84049;BME280;74136;51.684;7.862;2024-03-23T02:32:23;100156.03;;;4.90;100.00
84049;BME280;74136;51.684;7.862;2024-03-23T02:34:49;100148.25;;;4.87;100.00
84049;BME280;74136;51.684;7.862;2024-03-23T02:37:16;100166.09;;;4.89;100.00
84049;BME280;74136;51.684;7.862;2024-03-23T02:39:42;100158.75;;;4.90;100.00
84049;BME280;74136;51.684;7.862;2024-03-23T02:42:08;100161.25;;;4.91;100.00
84049;BME280;74136;51.684;7.862;2024-03-23T02:44:34;100148.47;;;4.92;100.00
84049;BME280;74136;51.684;7.862;2024-03-23T02:47:00;100153.72;;;4.93;100.00
84049;BME280;74136;51.684;7.862;2024-03-23T02:49:27;100156.44;;;4.93;100.00
84049;BME280;74136;51.684;7.862;2024-03-23T02:51:53;100151.19;;;4.92;100.00
84049;BME280;74136;51.684;7.862;2024-03-23T02:54:19;100151.41;;;4.90;100.00
84049;BME280;74136;51.684;7.862;2024-03-23T02:56:45;100153.72;;;4.93;100.00
84049;BME280;74136;51.684;7.862;2024-03-23T02:59:11;100149.94;;;4.94;100.00
84049;BME280;74136;51.684;7.862;2024-03-23T03:01:38;100145.53;;;4.93;100.00
84049;BME280;74136;51.684;7.862;2024-03-23T03:04:04;100150.56;;;4.90;100.00
84049;BME280;74136;51.684;7.862;2024-03-23T03:06:31;100145.13;;;4.90;100.00
84049;BME280;74136;51.684;7.862;2024-03-23T03:08:58;100149.53;;;4.91;100.00
84049;BME280;74136;51.684;7.862;2024-03-23T03:11:24;100139.66;;;4.90;100.00
84049;BME280;74136;51.684;7.862;2024-03-23T03:13:50;100138.81;;;4.89;100.00
84049;BME280;74136;51.684;7.862;2024-03-23T03:16:16;100139.66;;;4.90;100.00
84049;BME280;74136;51.684;7.862;2024-03-23T03:18:42;100145.13;;;4.90;100.00
84049;BME280;74136;51.684;7.862;2024-03-23T03:21:09;100146.59;;;4.86;100.00
84049;BME280;74136;51.684;7.862;2024-03-23T03:23:39;100140.72;;;4.89;100.00
84049;BME280;74136;51.684;7.862;2024-03-23T03:26:06;100158.75;;;4.90;100.00
84049;BME280;74136;51.684;7.862;2024-03-23T03:28:32;100153.09;;;4.85;100.00
84049;BME280;74136;51.684;7.862;2024-03-23T03:30:59;100162.13;;;4.85;100.00
84049;BME280;74136;51.684;7.862;2024-03-23T03:33:26;100167.78;;;4.70;100.00
84049;BME280;74136;51.684;7.862;2024-03-23T03:35:53;100178.44;;;4.65;98.92
84049;BME280;74136;51.684;7.862;2024-03-23T03:38:20;100174.03;;;4.58;97.17
84049;BME280;74136;51.684;7.862;2024-03-23T03:40:47;100171.13;;;4.53;97.37
84049;BME280;74136;51.684;7.862;2024-03-23T03:43:13;100162.06;;;4.46;95.67
84049;BME280;74136;51.684;7.862;2024-03-23T03:45:39;100147.63;;;4.45;95.81
84049;BME280;74136;51.684;7.862;2024-03-23T03:48:06;100150.34;;;4.45;96.81
84049;BME280;74136;51.684;7.862;2024-03-23T03:50:33;100137.56;;;4.46;98.49
84049;BME280;74136;51.684;7.862;2024-03-23T03:52:59;100135.66;;;4.46;98.63
84049;BME280;74136;51.684;7.862;2024-03-23T03:55:25;100136.91;;;4.44;98.39
84049;BME280;74136;51.684;7.862;2024-03-23T03:57:51;100130.44;;;4.45;98.82
84049;BME280;74136;51.684;7.862;2024-03-23T04:00:18;100131.47;;;4.44;98.72
84049;BME280;74136;51.684;7.862;2024-03-23T04:02:44;100133.78;;;4.40;98.04
84049;BME280;74136;51.684;7.862;2024-03-23T04:05:10;100129.59;;;4.37;97.18
84049;BME280;74136;51.684;7.862;2024-03-23T04:07:36;100117.44;;;4.33;95.66
84049;BME280;74136;51.684;7.862;2024-03-23T04:10:03;100121.19;;;4.32;94.90
84049;BME280;74136;51.684;7.862;2024-03-23T04:12:34;100116.38;;;4.34;95.17
84049;BME280;74136;51.684;7.862;2024-03-23T04:15:00;100107.38;;;4.34;95.45
84049;BME280;74136;51.684;7.862;2024-03-23T04:17:29;100110.09;;;4.34;95.60
84049;BME280;74136;51.684;7.862;2024-03-23T04:20:01;100113.03;;;4.32;95.63
84049;BME280;74136;51.684;7.862;2024-03-23T04:22:27;100113.22;;;4.31;95.31
84049;BME280;74136;51.684;7.862;2024-03-23T04:24:54;100111.34;;;4.31;96.62
84049;BME280;74136;51.684;7.862;2024-03-23T04:27:21;100105.88;;;4.31;96.95
84049;BME280;74136;51.684;7.862;2024-03-23T04:29:48;100104.25;;;4.30;96.93
84049;BME280;74136;51.684;7.862;2024-03-23T04:32:15;100108.63;;;4.31;97.29
84049;BME280;74136;51.684;7.862;2024-03-23T04:34:41;100122.22;;;4.31;97.81
84049;BME280;74136;51.684;7.862;2024-03-23T04:37:07;100110.72;;;4.29;97.39
84049;BME280;74136;51.684;7.862;2024-03-23T04:39:35;100107.38;;;4.34;97.50
84049;BME280;74136;51.684;7.862;2024-03-23T04:42:02;100102.97;;;4.33;97.86
84049;BME280;74136;51.684;7.862;2024-03-23T04:44:29;100100.88;;;4.35;97.59
84049;BME280;74136;51.684;7.862;2024-03-23T04:46:55;100106.34;;;4.42;98.78
84049;BME280;74136;51.684;7.862;2024-03-23T04:49:21;100113.03;;;4.46;99.31
84049;BME280;74136;51.684;7.862;2024-03-23T04:51:47;100104.66;;;4.47;99.70
84049;BME280;74136;51.684;7.862;2024-03-23T04:54:14;100105.28;;;4.49;99.95
84049;BME280;74136;51.684;7.862;2024-03-23T04:56:41;100103.22;;;4.51;100.00
84049;BME280;74136;51.684;7.862;2024-03-23T04:59:07;100094.19;;;4.51;100.00
84049;BME280;74136;51.684;7.862;2024-03-23T05:01:33;100093.34;;;4.50;100.00
84049;BME280;74136;51.684;7.862;2024-03-23T05:04:00;100096.91;;;4.51;100.00
84049;BME280;74136;51.684;7.862;2024-03-23T05:06:26;100097.13;;;4.49;100.00
84049;BME280;74136;51.684;7.862;2024-03-23T05:08:52;100096.28;;;4.49;99.70
84049;BME280;74136;51.684;7.862;2024-03-23T05:11:18;100096.28;;;4.49;100.00
84049;BME280;74136;51.684;7.862;2024-03-23T05:13:45;100094.59;;;4.48;100.00
84049;BME280;74136;51.684;7.862;2024-03-23T05:16:11;100094.41;;;4.49;100.00
84049;BME280;74136;51.684;7.862;2024-03-23T05:18:37;100102.38;;;4.51;100.00
84049;BME280;74136;51.684;7.862;2024-03-23T05:21:04;100100.47;;;4.51;100.00
84049;BME280;74136;51.684;7.862;2024-03-23T05:23:30;100106.13;;;4.50;100.00
84049;BME280;74136;51.684;7.862;2024-03-23T05:25:57;100104.03;;;4.52;100.00
84049;BME280;74136;51.684;7.862;2024-03-23T05:28:23;100104.88;;;4.52;100.00
84049;BME280;74136;51.684;7.862;2024-03-23T05:30:55;100102.16;;;4.52;100.00
84049;BME280;74136;51.684;7.862;2024-03-23T05:33:22;100107.81;;;4.51;100.00
84049;BME280;74136;51.684;7.862;2024-03-23T05:35:59;100105.09;;;4.51;100.00
84049;BME280;74136;51.684;7.862;2024-03-23T05:38:26;100101.53;;;4.50;100.00
84049;BME280;74136;51.684;7.862;2024-03-23T05:40:59;100104.25;;;4.50;100.00
84049;BME280;74136;51.684;7.862;2024-03-23T05:43:26;100105.28;;;4.49;100.00
84049;BME280;74136;51.684;7.862;2024-03-23T05:45:59;100103.00;;;4.53;100.00
84049;BME280;74136;51.684;7.862;2024-03-23T05:48:26;100106.78;;;4.52;100.00
84049;BME280;74136;51.684;7.862;2024-03-23T05:50:52;100104.03;;;4.52;100.00
84049;BME280;74136;51.684;7.862;2024-03-23T05:53:19;100110.09;;;4.54;100.00
84049;BME280;74136;51.684;7.862;2024-03-23T05:55:49;100105.94;;;4.51;100.00
84049;BME280;74136;51.684;7.862;2024-03-23T05:58:16;100114.72;;;4.53;100.00
84049;BME280;74136;51.684;7.862;2024-03-23T06:00:43;100117.44;;;4.53;100.00
84049;BME280;74136;51.684;7.862;2024-03-23T06:03:10;100118.06;;;4.55;100.00
84049;BME280;74136;51.684;7.862;2024-03-23T06:05:37;100119.94;;;4.55;100.00
84049;BME280;74136;51.684;7.862;2024-03-23T06:08:04;100109.91;;;4.55;100.00
84049;BME280;74136;51.684;7.862;2024-03-23T06:10:31;100113.47;;;4.56;100.00
84049;BME280;74136;51.684;7.862;2024-03-23T06:13:00;100113.47;;;4.56;100.00
84049;BME280;74136;51.684;7.862;2024-03-23T06:15:26;100112.22;;;4.58;100.00
84049;BME280;74136;51.684;7.862;2024-03-23T06:17:53;100109.91;;;4.62;100.00
84049;BME280;74136;51.684;7.862;2024-03-23T06:20:19;100112.44;;;4.63;100.00
84049;BME280;74136;51.684;7.862;2024-03-23T06:22:45;100105.69;;;4.66;99.63
84049;BME280;74136;51.684;7.862;2024-03-23T06:25:11;100113.25;;;4.70;99.89
84049;BME280;74136;51.684;7.862;2024-03-23T06:27:38;100099.63;;;4.77;99.93
84049;BME280;74136;51.684;7.862;2024-03-23T06:30:05;100106.13;;;4.76;99.78
84049;BME280;74136;51.684;7.862;2024-03-23T06:32:32;100105.50;;;4.81;99.39
84049;BME280;74136;51.684;7.862;2024-03-23T06:34:59;100106.97;;;4.83;99.44
84049;BME280;74136;51.684;7.862;2024-03-23T06:37:25;100117.22;;;4.88;99.55
84049;BME280;74136;51.684;7.862;2024-03-23T06:39:51;100109.88;;;4.88;99.39
84049;BME280;74136;51.684;7.862;2024-03-23T06:42:18;100107.78;;;4.90;99.70
84049;BME280;74136;51.684;7.862;2024-03-23T06:44:44;100109.06;;;4.94;100.00
84049;BME280;74136;51.684;7.862;2024-03-23T06:47:10;100117.88;;;4.96;99.60
84049;BME280;74136;51.684;7.862;2024-03-23T06:49:36;100122.22;;;4.97;99.21
84049;BME280;74136;51.684;7.862;2024-03-23T06:52:03;100116.78;;;4.97;99.27
84049;BME280;74136;51.684;7.862;2024-03-23T06:54:29;100130.63;;;5.02;99.95
84049;BME280;74136;51.684;7.862;2024-03-23T06:56:55;100123.50;;;5.01;99.38
84049;BME280;74136;51.684;7.862;2024-03-23T06:59:21;100124.75;;;4.99;98.94
84049;BME280;74136;51.684;7.862;2024-03-23T07:01:48;100129.16;;;5.00;99.17
84049;BME280;74136;51.684;7.862;2024-03-23T07:04:14;100128.53;;;5.04;99.57
84049;BME280;74136;51.684;7.862;2024-03-23T07:06:44;100133.13;;;5.10;99.46
84049;BME280;74136;51.684;7.862;2024-03-23T07:09:10;100132.09;;;5.11;98.92
84049;BME280;74136;51.684;7.862;2024-03-23T07:11:37;100144.88;;;5.18;99.48
84049;BME280;74136;51.684;7.862;2024-03-23T07:14:03;100136.03;;;5.22;98.73
84049;BME280;74136;51.684;7.862;2024-03-23T07:16:29;100128.06;;;5.27;98.95
84049;BME280;74136;51.684;7.862;2024-03-23T07:18:56;100126.16;;;5.34;98.96
84049;BME280;74136;51.684;7.862;2024-03-23T07:21:22;100127.59;;;5.43;99.58
84049;BME280;74136;51.684;7.862;2024-03-23T07:23:48;100125.06;;;5.48;98.73
84049;BME280;74136;51.684;7.862;2024-03-23T07:26:14;100129.47;;;5.49;97.81
84049;BME280;74136;51.684;7.862;2024-03-23T07:28:41;100125.91;;;5.49;96.95
84049;BME280;74136;51.684;7.862;2024-03-23T07:31:13;100136.78;;;5.62;98.56
84049;BME280;74136;51.684;7.862;2024-03-23T07:33:46;100139.22;;;5.77;98.48
84049;BME280;74136;51.684;7.862;2024-03-23T07:36:13;100137.53;;;5.89;97.81
84049;BME280;74136;51.684;7.862;2024-03-23T07:38:43;100131.84;;;5.91;96.04
84049;BME280;74136;51.684;7.862;2024-03-23T07:41:17;100137.47;;;6.02;96.16
84049;BME280;74136;51.684;7.862;2024-03-23T07:43:44;100134.25;;;6.12;95.71
84049;BME280;74136;51.684;7.862;2024-03-23T07:46:11;100129.59;;;6.19;94.67
84049;BME280;74136;51.684;7.862;2024-03-23T07:48:38;100133.50;;;6.30;94.67
84049;BME280;74136;51.684;7.862;2024-03-23T07:51:31;100133.16;;;6.19;92.86
84049;BME280;74136;51.684;7.862;2024-03-23T07:53:57;100137.06;;;6.37;93.35
84049;BME280;74136;51.684;7.862;2024-03-23T07:56:23;100126.28;;;6.42;93.16
84049;BME280;74136;51.684;7.862;2024-03-23T07:58:50;100130.84;;;6.54;93.07
84049;BME280;74136;51.684;7.862;2024-03-23T08:01:17;100126.16;;;6.62;92.55
84049;BME280;74136;51.684;7.862;2024-03-23T08:03:44;100134.53;;;6.67;92.05
84049;BME280;74136;51.684;7.862;2024-03-23T08:06:17;100133.19;;;6.76;91.63
84049;BME280;74136;51.684;7.862;2024-03-23T08:08:47;100136.09;;;6.81;92.22
84049;BME280;74136;51.684;7.862;2024-03-23T08:11:13;100131.59;;;6.93;90.92
84049;BME280;74136;51.684;7.862;2024-03-23T08:13:41;100133.28;;;6.87;88.27
84049;BME280;74136;51.684;7.862;2024-03-23T08:16:12;100127.88;;;7.06;89.43
84049;BME280;74136;51.684;7.862;2024-03-23T08:18:40;100125.28;;;7.11;87.49
84049;BME280;74136;51.684;7.862;2024-03-23T08:21:06;100116.78;;;7.19;88.49
84049;BME280;74136;51.684;7.862;2024-03-23T08:23:34;100122.66;;;7.22;85.82
84049;BME280;74136;51.684;7.862;2024-03-23T08:26:08;100114.00;;;7.44;84.79
84049;BME280;74136;51.684;7.862;2024-03-23T08:28:35;100114.03;;;7.62;86.07
84049;BME280;74136;51.684;7.862;2024-03-23T08:31:04;100108.56;;;7.92;86.59
84049;BME280;74136;51.684;7.862;2024-03-23T08:33:31;100116.75;;;8.10;80.39
84049;BME280;74136;51.684;7.862;2024-03-23T08:35:59;100110.06;;;8.06;82.43
84049;BME280;74136;51.684;7.862;2024-03-23T08:38:26;100120.91;;;7.83;81.75
84049;BME280;74136;51.684;7.862;2024-03-23T08:41:00;100126.63;;;7.45;82.02
84049;BME280;74136;51.684;7.862;2024-03-23T08:43:26;100128.22;;;7.16;82.02
84049;BME280;74136;51.684;7.862;2024-03-23T08:45:53;100117.03;;;7.17;82.75
84049;BME280;74136;51.684;7.862;2024-03-23T08:48:20;100118.44;;;7.02;84.16
84049;BME280;74136;51.684;7.862;2024-03-23T08:51:05;100132.03;;;6.90;82.89
84049;BME280;74136;51.684;7.862;2024-03-23T08:53:32;100121.25;;;6.95;82.11
84049;BME280;74136;51.684;7.862;2024-03-23T08:55:59;100116.25;;;7.10;81.30
84049;BME280;74136;51.684;7.862;2024-03-23T08:58:30;100123.97;;;7.56;82.89
84049;BME280;74136;51.684;7.862;2024-03-23T09:00:57;100120.75;;;7.78;80.26
84049;BME280;74136;51.684;7.862;2024-03-23T09:03:29;100124.56;;;7.95;77.87
84049;BME280;74136;51.684;7.862;2024-03-23T09:05:55;100120.94;;;8.13;77.28
84049;BME280;74136;51.684;7.862;2024-03-23T09:08:21;100121.75;;;8.31;77.27
84049;BME280;74136;51.684;7.862;2024-03-23T09:10:48;100116.44;;;8.48;76.52
84049;BME280;74136;51.684;7.862;2024-03-23T09:13:14;100113.63;;;8.90;77.45
84049;BME280;74136;51.684;7.862;2024-03-23T09:15:51;100132.13;;;8.71;72.26
84049;BME280;74136;51.684;7.862;2024-03-23T09:18:17;100116.22;;;8.50;75.29
84049;BME280;74136;51.684;7.862;2024-03-23T09:20:44;100111.75;;;8.19;73.57
84049;BME280;74136;51.684;7.862;2024-03-23T09:23:10;100116.97;;;7.79;75.09
84049;BME280;74136;51.684;7.862;2024-03-23T09:25:37;100114.47;;;7.59;75.25
84049;BME280;74136;51.684;7.862;2024-03-23T09:28:05;100110.47;;;7.91;75.05
84049;BME280;74136;51.684;7.862;2024-03-23T09:30:33;100116.41;;;8.36;75.27
84049;BME280;74136;51.684;7.862;2024-03-23T09:33:11;100096.22;;;8.72;74.13
84049;BME280;74136;51.684;7.862;2024-03-23T09:35:41;100104.72;;;8.94;71.83
84049;BME280;74136;51.684;7.862;2024-03-23T09:38:08;100105.78;;;9.17;71.00
84049;BME280;74136;51.684;7.862;2024-03-23T09:40:44;100098.84;;;9.26;69.82
84049;BME280;74136;51.684;7.862;2024-03-23T09:43:11;100102.44;;;9.26;69.86
84049;BME280;74136;51.684;7.862;2024-03-23T09:45:41;100102.91;;;9.35;68.96
84049;BME280;74136;51.684;7.862;2024-03-23T09:48:09;100094.44;;;9.25;68.36
84049;BME280;74136;51.684;7.862;2024-03-23T09:50:38;100083.13;;;9.61;68.85
84049;BME280;74136;51.684;7.862;2024-03-23T09:53:09;100100.81;;;9.54;68.83
84049;BME280;74136;51.684;7.862;2024-03-23T09:55:35;100096.47;;;9.81;69.87
84049;BME280;74136;51.684;7.862;2024-03-23T09:58:02;100092.03;;;9.28;69.43
84049;BME280;74136;51.684;7.862;2024-03-23T10:00:28;100096.78;;;9.44;67.60
84049;BME280;74136;51.684;7.862;2024-03-23T10:02:55;100093.06;;;9.50;67.81
84049;BME280;74136;51.684;7.862;2024-03-23T10:05:24;100085.13;;;9.26;69.78
84049;BME280;74136;51.684;7.862;2024-03-23T10:07:50;100079.34;;;8.46;71.94
84049;BME280;74136;51.684;7.862;2024-03-23T10:10:17;100091.28;;;8.21;73.94
84049;BME280;74136;51.684;7.862;2024-03-23T10:12:45;100077.09;;;8.13;73.07
84049;BME280;74136;51.684;7.862;2024-03-23T10:15:24;100088.38;;;7.38;73.71
84049;BME280;74136;51.684;7.862;2024-03-23T10:17:52;100086.22;;;7.04;78.73
84049;BME280;74136;51.684;7.862;2024-03-23T10:20:23;100116.66;;;6.89;78.99
84049;BME280;74136;51.684;7.862;2024-03-23T10:22:50;100108.06;;;6.85;79.28
84049;BME280;74136;51.684;7.862;2024-03-23T10:25:22;100105.50;;;6.66;79.03
84049;BME280;74136;51.684;7.862;2024-03-23T10:27:59;100120.50;;;5.87;82.60
84049;BME280;74136;51.684;7.862;2024-03-23T10:30:29;100111.28;;;5.88;83.05
84049;BME280;74136;51.684;7.862;2024-03-23T10:35:34;100092.22;;;6.94;83.98
84049;BME280;74136;51.684;7.862;2024-03-23T10:38:04;100079.19;;;7.51;84.70
84049;BME280;74136;51.684;7.862;2024-03-23T10:40:30;100069.31;;;8.10;80.07
84049;BME280;74136;51.684;7.862;2024-03-23T10:42:58;100070.06;;;8.47;74.72
84049;BME280;74136;51.684;7.862;2024-03-23T10:45:25;100080.69;;;8.55;71.13
84049;BME280;74136;51.684;7.862;2024-03-23T10:47:51;100083.81;;;8.28;72.12
84049;BME280;74136;51.684;7.862;2024-03-23T10:50:18;100069.69;;;8.43;76.17
84049;BME280;74136;51.684;7.862;2024-03-23T10:52:46;100080.09;;;8.76;73.06
84049;BME280;74136;51.684;7.862;2024-03-23T10:55:31;100064.09;;;8.73;68.55
84049;BME280;74136;51.684;7.862;2024-03-23T10:58:24;100065.44;;;8.70;68.39
84049;BME280;74136;51.684;7.862;2024-03-23T11:00:53;100072.59;;;9.06;69.50
84049;BME280;74136;51.684;7.862;2024-03-23T11:03:37;100071.47;;;9.42;69.91
84049;BME280;74136;51.684;7.862;2024-03-23T11:06:05;100068.31;;;8.99;66.64
84049;BME280;74136;51.684;7.862;2024-03-23T11:08:33;100072.84;;;9.05;65.48
84049;BME280;74136;51.684;7.862;2024-03-23T11:11:21;100070.88;;;9.40;64.14
84049;BME280;74136;51.684;7.862;2024-03-23T11:13:49;100078.16;;;9.86;63.21
84049;BME280;74136;51.684;7.862;2024-03-23T11:16:26;100077.09;;;9.88;59.86
84049;BME280;74136;51.684;7.862;2024-03-23T11:19:36;100070.34;;;9.67;61.42
84049;BME280;74136;51.684;7.862;2024-03-23T11:22:03;100073.53;;;9.35;58.92
84049;BME280;74136;51.684;7.862;2024-03-23T11:24:31;100084.41;;;9.19;59.46
84049;BME280;74136;51.684;7.862;2024-03-23T11:26:57;100080.94;;;9.00;61.84
84049;BME280;74136;51.684;7.862;2024-03-23T11:29:29;100059.13;;;8.82;60.33
84049;BME280;74136;51.684;7.862;2024-03-23T11:31:56;100074.59;;;8.53;59.62
84049;BME280;74136;51.684;7.862;2024-03-23T11:34:25;100069.47;;;8.56;60.01
84049;BME280;74136;51.684;7.862;2024-03-23T11:37:03;100075.63;;;8.40;57.37
84049;BME280;74136;51.684;7.862;2024-03-23T11:39:30;100096.44;;;8.29;58.92
84049;BME280;74136;51.684;7.862;2024-03-23T11:41:56;100074.47;;;8.18;60.89
84049;BME280;74136;51.684;7.862;2024-03-23T11:44:26;100088.09;;;8.24;59.40
84049;BME280;74136;51.684;7.862;2024-03-23T11:46:52;100097.22;;;8.36;60.58
84049;BME280;74136;51.684;7.862;2024-03-23T11:49:23;100100.00;;;8.48;60.27
84049;BME280;74136;51.684;7.862;2024-03-23T11:51:50;100086.75;;;8.45;62.41
84049;BME280;74136;51.684;7.862;2024-03-23T11:54:20;100108.91;;;8.14;61.89
84049;BME280;74136;51.684;7.862;2024-03-23T11:57:02;100121.53;;;7.66;64.03
84049;BME280;74136;51.684;7.862;2024-03-23T11:59:38;100185.78;;;7.27;66.29
84049;BME280;74136;51.684;7.862;2024-03-23T12:02:13;100161.88;;;6.67;68.95
84049;BME280;74136;51.684;7.862;2024-03-23T12:04:42;100148.00;;;6.37;69.47
84049;BME280;74136;51.684;7.862;2024-03-23T12:07:16;100136.09;;;6.25;70.07
84049;BME280;74136;51.684;7.862;2024-03-23T12:09:45;100140.72;;;6.24;71.19
84049;BME280;74136;51.684;7.862;2024-03-23T12:12:17;100137.34;;;6.29;71.38
84049;BME280;74136;51.684;7.862;2024-03-23T12:14:44;100124.06;;;6.32;72.02
84049;BME280;74136;51.684;7.862;2024-03-23T12:17:14;100123.44;;;6.62;72.14
84049;BME280;74136;51.684;7.862;2024-03-23T12:19:42;100111.78;;;6.73;71.99
84049;BME280;74136;51.684;7.862;2024-03-23T12:22:08;100109.38;;;6.83;71.70
84049;BME280;74136;51.684;7.862;2024-03-23T12:24:35;100109.91;;;6.91;71.59
84049;BME280;74136;51.684;7.862;2024-03-23T12:27:05;100100.78;;;6.98;70.03
84049;BME280;74136;51.684;7.862;2024-03-23T12:29:31;100088.53;;;7.25;70.77
84049;BME280;74136;51.684;7.862;2024-03-23T12:32:02;100087.00;;;7.29;70.28
84049;BME280;74136;51.684;7.862;2024-03-23T12:34:29;100090.75;;;7.35;68.91
84049;BME280;74136;51.684;7.862;2024-03-23T12:36:57;100082.28;;;7.54;71.24
84049;BME280;74136;51.684;7.862;2024-03-23T12:39:23;100080.91;;;7.82;70.05
84049;BME280;74136;51.684;7.862;2024-03-23T12:42:04;100079.50;;;7.91;69.36
84049;BME280;74136;51.684;7.862;2024-03-23T12:44:34;100083.47;;;8.07;68.74
84049;BME280;74136;51.684;7.862;2024-03-23T12:47:07;100074.47;;;7.88;68.82
84049;BME280;74136;51.684;7.862;2024-03-23T12:49:46;100074.66;;;7.75;69.40
84049;BME280;74136;51.684;7.862;2024-03-23T12:52:12;100084.03;;;7.97;70.03
84049;BME280;74136;51.684;7.862;2024-03-23T12:54:39;100072.25;;;7.96;68.39
84049;BME280;74136;51.684;7.862;2024-03-23T12:57:05;100068.75;;;8.19;69.08
84049;BME280;74136;51.684;7.862;2024-03-23T12:59:31;100079.00;;;8.54;66.94
84049;BME280;74136;51.684;7.862;2024-03-23T13:01:57;100083.84;;;9.05;67.95
84049;BME280;74136;51.684;7.862;2024-03-23T13:04:24;100080.72;;;9.13;64.22
84049;BME280;74136;51.684;7.862;2024-03-23T13:06:50;100068.44;;;9.04;65.43
84049;BME280;74136;51.684;7.862;2024-03-23T13:09:16;100076.28;;;8.89;64.65
84049;BME280;74136;51.684;7.862;2024-03-23T13:11:43;100072.69;;;8.53;63.93
84049;BME280;74136;51.684;7.862;2024-03-23T13:14:09;100074.69;;;8.46;65.73
84049;BME280;74136;51.684;7.862;2024-03-23T13:16:35;100075.28;;;8.36;65.99
84049;BME280;74136;51.684;7.862;2024-03-23T13:19:02;100090.09;;;8.29;64.06
84049;BME280;74136;51.684;7.862;2024-03-23T13:21:29;100129.28;;;7.51;68.23
84049;BME280;74136;51.684;7.862;2024-03-23T13:23:55;100125.44;;;6.48;74.48
84049;BME280;74136;51.684;7.862;2024-03-23T13:26:21;100117.84;;;6.18;76.06
84049;BME280;74136;51.684;7.862;2024-03-23T13:28:47;100121.44;;;6.12;78.62
84049;BME280;74136;51.684;7.862;2024-03-23T13:31:13;100109.69;;;6.12;77.22
84049;BME280;74136;51.684;7.862;2024-03-23T13:33:40;100105.13;;;6.31;78.55
84049;BME280;74136;51.684;7.862;2024-03-23T13:36:08;100104.63;;;6.72;77.28
84049;BME280;74136;51.684;7.862;2024-03-23T13:38:34;100092.59;;;6.98;73.89
84049;BME280;74136;51.684;7.862;2024-03-23T13:41:00;100074.53;;;7.15;72.78
84049;BME280;74136;51.684;7.862;2024-03-23T13:43:27;100067.78;;;7.36;72.00
84049;BME280;74136;51.684;7.862;2024-03-23T13:45:58;100069.47;;;7.37;70.30
84049;BME280;74136;51.684;7.862;2024-03-23T13:48:26;100068.31;;;7.26;70.17
84049;BME280;74136;51.684;7.862;2024-03-23T13:53:25;100057.97;;;7.10;70.46
84049;BME280;74136;51.684;7.862;2024-03-23T13:55:51;100069.81;;;7.04;71.40
84049;BME280;74136;51.684;7.862;2024-03-23T13:58:17;100067.41;;;7.14;71.13
84049;BME280;74136;51.684;7.862;2024-03-23T14:00:44;100060.88;;;7.15;71.59